createdAt,value
2018-10-17T00:00:58.976Z,11.90
2018-10-17T00:03:27.630Z,11.90
2018-10-17T00:05:56.294Z,11.90
2018-10-17T00:08:24.920Z,11.90
2018-10-17T00:10:53.590Z,11.90
2018-10-17T00:13:22.206Z,11.80
2018-10-17T00:15:50.858Z,11.80
2018-10-17T00:18:19.488Z,11.90
2018-10-17T00:20:48.162Z,11.80
2018-10-17T00:23:16.883Z,11.70
2018-10-17T00:25:45.441Z,11.80
2018-10-17T00:28:14.088Z,11.80
2018-10-17T00:30:42.744Z,11.70
2018-10-17T00:33:11.362Z,11.70
2018-10-17T00:35:40.017Z,11.70
2018-10-17T00:38:08.690Z,11.70
2018-10-17T00:40:37.333Z,11.80
2018-10-17T00:43:06.049Z,11.80
2018-10-17T00:45:34.617Z,11.70
2018-10-17T00:48:03.275Z,11.70
2018-10-17T00:50:31.923Z,11.70
2018-10-17T00:53:00.597Z,11.70
2018-10-17T00:55:29.247Z,11.60
2018-10-17T00:57:57.879Z,11.70
2018-10-17T01:00:26.592Z,11.60
2018-10-17T01:02:55.229Z,11.50
2018-10-17T01:05:23.869Z,11.50
2018-10-17T01:07:52.533Z,11.50
2018-10-17T01:10:21.229Z,11.50
2018-10-17T01:12:49.880Z,11.40
2018-10-17T01:15:18.540Z,11.40
2018-10-17T01:17:47.206Z,11.30
2018-10-17T01:20:15.858Z,11.20
2018-10-17T01:22:44.510Z,11.30
2018-10-17T01:25:13.204Z,11.30
2018-10-17T01:27:41.832Z,11.30
2018-10-17T01:30:10.452Z,11.30
2018-10-17T01:32:39.094Z,11.30
2018-10-17T01:35:07.917Z,11.30
2018-10-17T01:37:36.550Z,11.30
2018-10-17T01:40:05.760Z,11.20
2018-10-17T01:42:34.409Z,11.20
2018-10-17T01:45:03.046Z,11.10
2018-10-17T01:47:31.722Z,11.10
2018-10-17T01:50:00.361Z,11.10
2018-10-17T01:52:29.000Z,11.00
2018-10-17T01:54:57.658Z,11.00
2018-10-17T01:57:26.283Z,11.00
2018-10-17T01:59:54.944Z,10.90
2018-10-17T02:02:23.604Z,11.00
2018-10-17T02:04:52.268Z,11.10
2018-10-17T02:07:20.916Z,11.10
2018-10-17T02:09:49.564Z,11.00
2018-10-17T02:12:18.199Z,11.00
2018-10-17T02:14:46.840Z,10.90
2018-10-17T02:17:15.553Z,11.00
2018-10-17T02:19:44.153Z,11.00
2018-10-17T02:22:12.876Z,11.00
2018-10-17T02:24:41.539Z,10.90
2018-10-17T02:27:10.193Z,10.90
2018-10-17T02:29:38.847Z,11.00
2018-10-17T02:32:07.487Z,10.90
2018-10-17T02:34:40.389Z,10.90
2018-10-17T02:37:09.075Z,10.80
2018-10-17T02:39:37.838Z,10.80
2018-10-17T02:42:06.313Z,10.80
2018-10-17T02:44:34.965Z,10.80
2018-10-17T02:47:03.747Z,10.80
2018-10-17T02:49:32.322Z,10.80
2018-10-17T02:52:00.959Z,10.70
2018-10-17T02:54:29.630Z,10.70
2018-10-17T02:56:58.287Z,10.60
2018-10-17T02:59:26.948Z,10.60
2018-10-17T03:01:55.585Z,10.60
2018-10-17T03:04:24.255Z,10.50
2018-10-17T03:06:52.967Z,10.40
2018-10-17T03:09:22.556Z,10.40
2018-10-17T03:11:51.208Z,10.40
2018-10-17T03:14:19.868Z,10.40
2018-10-17T03:16:48.536Z,10.40
2018-10-17T03:19:17.266Z,10.40
2018-10-17T03:21:45.865Z,10.40
2018-10-17T03:24:14.500Z,10.40
2018-10-17T03:26:43.202Z,10.40
2018-10-17T03:29:11.894Z,10.40
2018-10-17T03:31:40.496Z,10.30
2018-10-17T03:34:09.178Z,10.40
2018-10-17T03:36:38.000Z,10.40
2018-10-17T03:39:08.587Z,10.40
2018-10-17T03:41:37.388Z,10.40
2018-10-17T03:44:06.134Z,10.40
2018-10-17T03:46:34.866Z,10.30
2018-10-17T03:49:03.643Z,10.40
2018-10-17T03:51:32.310Z,10.30
2018-10-17T03:54:00.975Z,10.40
2018-10-17T03:56:29.699Z,10.30
2018-10-17T03:58:58.359Z,10.30
2018-10-17T04:01:27.003Z,10.30
2018-10-17T04:03:55.700Z,10.30
2018-10-17T04:06:24.384Z,10.20
2018-10-17T04:08:53.155Z,10.30
2018-10-17T04:11:21.811Z,10.30
2018-10-17T04:13:50.441Z,10.30
2018-10-17T04:16:19.114Z,10.30
2018-10-17T04:18:47.751Z,10.30
2018-10-17T04:21:16.417Z,10.20
2018-10-17T04:23:45.079Z,10.20
2018-10-17T04:26:13.737Z,10.20
2018-10-17T04:28:42.448Z,10.20
2018-10-17T04:31:11.145Z,10.20
2018-10-17T04:33:39.765Z,10.10
2018-10-17T04:36:08.490Z,10.20
2018-10-17T04:38:37.069Z,10.10
2018-10-17T04:41:05.761Z,10.10
2018-10-17T04:43:34.401Z,10.10
2018-10-17T04:46:03.067Z,10.20
2018-10-17T04:48:31.723Z,10.20
2018-10-17T04:51:00.371Z,10.20
2018-10-17T04:53:29.038Z,10.20
2018-10-17T04:55:57.684Z,10.20
2018-10-17T04:58:26.406Z,10.20
2018-10-17T05:00:55.149Z,10.20
2018-10-17T05:03:23.816Z,10.20
2018-10-17T05:05:52.567Z,10.10
2018-10-17T05:08:21.217Z,10.10
2018-10-17T05:10:49.869Z,10.10
2018-10-17T05:13:18.530Z,10.10
2018-10-17T05:15:47.254Z,10.10
2018-10-17T05:18:15.908Z,10.10
2018-10-17T05:20:44.592Z,10.00
2018-10-17T05:23:13.310Z,10.10
2018-10-17T05:25:41.886Z,10.10
2018-10-17T05:28:10.558Z,10.00
2018-10-17T05:30:39.253Z,10.00
2018-10-17T05:33:08.828Z,10.00
2018-10-17T05:35:37.500Z,9.90
2018-10-17T05:38:06.678Z,9.90
2018-10-17T05:40:35.350Z,9.90
2018-10-17T05:43:04.337Z,9.90
2018-10-17T05:45:32.943Z,9.80
2018-10-17T05:48:01.602Z,9.90
2018-10-17T05:50:30.274Z,9.90
2018-10-17T05:52:58.935Z,9.90
2018-10-17T05:55:27.572Z,9.80
2018-10-17T05:57:56.484Z,9.80
2018-10-17T06:00:25.161Z,9.80
2018-10-17T06:02:53.821Z,9.70
2018-10-17T06:05:22.453Z,9.70
2018-10-17T06:07:51.097Z,9.60
2018-10-17T06:10:19.840Z,9.70
2018-10-17T06:12:48.373Z,9.70
2018-10-17T06:15:17.062Z,9.70
2018-10-17T06:17:45.712Z,9.70
2018-10-17T06:20:14.402Z,9.70
2018-10-17T06:22:43.049Z,9.70
2018-10-17T06:25:11.768Z,9.70
2018-10-17T06:27:40.390Z,9.80
2018-10-17T06:30:10.202Z,9.80
2018-10-17T06:32:39.186Z,9.80
2018-10-17T06:35:08.300Z,9.80
2018-10-17T06:37:37.306Z,9.80
2018-10-17T06:40:06.640Z,9.80
2018-10-17T06:42:35.289Z,9.80
2018-10-17T06:45:04.551Z,9.90
2018-10-17T06:47:33.199Z,9.80
2018-10-17T06:50:01.858Z,9.90
2018-10-17T06:52:30.502Z,9.90
2018-10-17T06:54:59.186Z,10.00
2018-10-17T06:57:27.972Z,9.90
2018-10-17T06:59:56.630Z,9.90
2018-10-17T07:02:25.291Z,9.90
2018-10-17T07:04:53.936Z,10.00
2018-10-17T07:07:22.581Z,10.10
2018-10-17T07:09:51.375Z,10.10
2018-10-17T07:12:20.036Z,10.10
2018-10-17T07:14:48.692Z,10.20
2018-10-17T07:17:17.364Z,10.20
2018-10-17T07:19:46.120Z,10.20
2018-10-17T07:22:14.797Z,10.10
2018-10-17T07:24:43.450Z,10.10
2018-10-17T07:27:12.128Z,10.20
2018-10-17T07:29:40.952Z,10.20
2018-10-17T07:32:09.512Z,10.20
2018-10-17T07:34:38.175Z,10.20
2018-10-17T07:37:07.159Z,10.30
2018-10-17T07:39:35.886Z,10.40
2018-10-17T07:42:04.571Z,10.40
2018-10-17T07:44:33.170Z,10.50
2018-10-17T07:47:01.869Z,10.50
2018-10-17T07:49:30.558Z,10.60
2018-10-17T07:51:59.214Z,10.60
2018-10-17T07:54:27.852Z,10.60
2018-10-17T07:56:56.575Z,10.60
2018-10-17T07:59:25.441Z,10.60
2018-10-17T08:01:54.210Z,10.60
2018-10-17T08:04:22.949Z,10.70
2018-10-17T08:06:51.622Z,10.70
2018-10-17T08:09:20.350Z,10.70
2018-10-17T08:11:49.036Z,10.80
2018-10-17T08:14:18.376Z,10.80
2018-10-17T08:16:46.945Z,10.90
2018-10-17T08:19:15.624Z,10.90
2018-10-17T08:21:44.300Z,11.00
2018-10-17T08:24:13.064Z,11.00
2018-10-17T08:26:41.658Z,11.00
2018-10-17T08:29:10.380Z,11.10
2018-10-17T08:31:39.137Z,11.10
2018-10-17T08:34:07.896Z,11.10
2018-10-17T08:36:36.799Z,11.10
2018-10-17T08:39:07.392Z,11.20
2018-10-17T08:41:36.127Z,11.20
2018-10-17T08:44:04.886Z,11.20
2018-10-17T08:46:33.503Z,11.30
2018-10-17T08:49:02.244Z,11.30
2018-10-17T08:51:30.883Z,11.40
2018-10-17T08:53:59.565Z,11.40
2018-10-17T08:56:28.233Z,11.50
2018-10-17T08:58:56.928Z,11.50
2018-10-17T09:01:25.610Z,11.50
2018-10-17T09:03:54.271Z,11.60
2018-10-17T09:06:22.938Z,11.60
2018-10-17T09:08:51.708Z,11.60
2018-10-17T09:11:20.451Z,11.70
2018-10-17T09:13:49.223Z,11.70
2018-10-17T09:16:17.998Z,11.80
2018-10-17T09:18:46.524Z,11.90
2018-10-17T09:21:15.535Z,11.90
2018-10-17T09:23:43.873Z,12.00
2018-10-17T09:26:12.551Z,12.10
2018-10-17T09:28:41.205Z,12.20
2018-10-17T09:31:09.859Z,12.20
2018-10-17T09:33:38.517Z,12.30
2018-10-17T09:36:07.229Z,12.30
2018-10-17T09:38:35.821Z,12.40
2018-10-17T09:41:04.484Z,12.50
2018-10-17T09:43:33.155Z,12.60
2018-10-17T09:46:01.802Z,12.70
2018-10-17T09:48:30.464Z,12.80
2018-10-17T09:50:59.229Z,12.90
2018-10-17T09:53:28.014Z,12.90
2018-10-17T09:55:56.595Z,12.90
2018-10-17T09:58:25.307Z,13.00
2018-10-17T10:00:59.328Z,13.20
2018-10-17T10:03:28.004Z,13.20
2018-10-17T10:05:56.705Z,13.40
2018-10-17T10:08:25.460Z,13.60
2018-10-17T10:10:54.191Z,13.80
2018-10-17T10:13:22.788Z,14.00
2018-10-17T10:15:51.495Z,14.20
2018-10-17T10:18:20.089Z,14.40
2018-10-17T10:20:48.757Z,14.60
2018-10-17T10:23:17.533Z,14.70
2018-10-17T10:25:46.094Z,14.80
2018-10-17T10:28:14.803Z,15.00
2018-10-17T10:30:43.460Z,15.10
2018-10-17T10:33:12.132Z,15.40
2018-10-17T10:35:40.778Z,15.70
2018-10-17T10:38:09.457Z,16.00
2018-10-17T10:40:38.147Z,16.20
2018-10-17T10:43:06.808Z,16.40
2018-10-17T10:45:35.548Z,16.50
2018-10-17T10:48:04.122Z,16.60
2018-10-17T10:50:32.787Z,16.90
2018-10-17T10:53:01.563Z,17.30
2018-10-17T10:55:30.166Z,17.60
2018-10-17T10:57:58.907Z,17.80
2018-10-17T11:00:27.505Z,18.20
2018-10-17T11:02:56.182Z,18.50
2018-10-17T11:05:25.015Z,18.70
2018-10-17T11:07:53.611Z,18.90
2018-10-17T11:10:22.276Z,19.20
2018-10-17T11:12:50.922Z,19.40
2018-10-17T11:15:19.583Z,19.50
2018-10-17T11:17:48.220Z,19.70
2018-10-17T11:20:16.936Z,19.50
2018-10-17T11:22:45.595Z,19.10
2018-10-17T11:25:14.439Z,18.40
2018-10-17T11:27:43.287Z,18.00
2018-10-17T11:30:12.477Z,17.70
2018-10-17T11:32:41.161Z,17.40
2018-10-17T11:35:10.623Z,17.10
2018-10-17T11:37:39.311Z,16.80
2018-10-17T11:40:08.245Z,16.70
2018-10-17T11:42:36.915Z,16.50
2018-10-17T11:45:06.027Z,16.30
2018-10-17T11:47:34.785Z,16.30
2018-10-17T11:50:04.269Z,16.30
2018-10-17T11:52:32.925Z,16.30
2018-10-17T11:55:01.594Z,16.20
2018-10-17T11:57:30.236Z,16.10
2018-10-17T11:59:58.917Z,16.00
2018-10-17T12:02:27.648Z,16.00
2018-10-17T12:04:56.570Z,15.90
2018-10-17T12:07:25.058Z,16.00
2018-10-17T12:09:53.754Z,16.00
2018-10-17T12:12:22.459Z,16.00
2018-10-17T12:14:51.133Z,16.00
2018-10-17T12:17:19.725Z,16.10
2018-10-17T12:19:48.428Z,16.10
2018-10-17T12:22:17.068Z,16.10
2018-10-17T12:24:45.748Z,16.00
2018-10-17T12:27:21.082Z,16.00
2018-10-17T12:29:49.794Z,16.00
2018-10-17T12:32:18.533Z,16.10
2018-10-17T12:34:47.339Z,16.10
2018-10-17T12:37:16.200Z,16.10
2018-10-17T12:39:45.061Z,16.00
2018-10-17T12:42:13.806Z,15.90
2018-10-17T12:44:42.586Z,15.90
2018-10-17T12:47:11.389Z,16.20
2018-10-17T12:49:40.055Z,16.20
2018-10-17T12:52:08.764Z,16.30
2018-10-17T12:54:37.515Z,16.10
2018-10-17T12:57:06.574Z,16.20
2018-10-17T12:59:35.416Z,16.30
2018-10-17T13:02:04.067Z,16.20
2018-10-17T13:04:32.778Z,16.20
2018-10-17T13:07:01.466Z,16.20
2018-10-17T13:09:30.108Z,16.20
2018-10-17T13:11:58.752Z,16.20
2018-10-17T13:14:27.423Z,16.30
2018-10-17T13:16:56.195Z,16.40
2018-10-17T13:19:25.276Z,16.30
2018-10-17T13:21:53.937Z,16.40
2018-10-17T13:24:22.576Z,16.50
2018-10-17T13:26:51.233Z,16.40
2018-10-17T13:29:19.877Z,16.40
2018-10-17T13:31:48.527Z,16.40
2018-10-17T13:34:17.208Z,16.40
2018-10-17T13:36:45.846Z,16.40
2018-10-17T13:39:14.927Z,16.30
2018-10-17T13:41:43.702Z,16.40
2018-10-17T13:44:12.477Z,16.30
2018-10-17T13:46:41.245Z,16.40
2018-10-17T13:49:09.999Z,16.50
2018-10-17T13:51:38.608Z,16.50
2018-10-17T13:54:07.293Z,16.40
2018-10-17T13:56:35.965Z,16.50
2018-10-17T13:59:04.676Z,16.60
2018-10-17T14:01:33.377Z,16.60
2018-10-17T14:04:02.061Z,16.50
2018-10-17T14:06:30.737Z,16.60
2018-10-17T14:08:59.557Z,16.50
2018-10-17T14:11:28.237Z,16.50
2018-10-17T14:13:56.893Z,16.50
2018-10-17T14:16:25.576Z,16.50
2018-10-17T14:18:54.251Z,16.50
2018-10-17T14:21:22.940Z,16.50
2018-10-17T14:23:51.640Z,16.40
2018-10-17T14:26:20.275Z,16.40
2018-10-17T14:28:49.001Z,16.50
2018-10-17T14:31:17.653Z,16.40
2018-10-17T14:33:46.348Z,16.50
2018-10-17T14:36:15.110Z,16.40
2018-10-17T14:38:43.708Z,16.40
2018-10-17T14:41:12.388Z,16.40
2018-10-17T14:43:41.012Z,16.40
2018-10-17T14:46:09.694Z,16.40
2018-10-17T14:48:38.334Z,16.50
2018-10-17T14:51:07.054Z,16.40
2018-10-17T14:53:35.656Z,16.50
2018-10-17T14:56:04.379Z,16.40
2018-10-17T14:58:33.020Z,16.40
2018-10-17T15:01:01.735Z,16.40
2018-10-17T15:03:30.380Z,16.40
2018-10-17T15:05:59.320Z,16.40
2018-10-17T15:08:27.974Z,16.30
2018-10-17T15:10:56.871Z,16.40
2018-10-17T15:13:25.368Z,16.40
2018-10-17T15:15:54.089Z,16.30
2018-10-17T15:18:22.749Z,16.30
2018-10-17T15:20:51.593Z,16.20
2018-10-17T15:23:20.239Z,16.20
2018-10-17T15:25:49.155Z,16.10
2018-10-17T15:28:18.223Z,16.10
2018-10-17T15:30:46.987Z,16.10
2018-10-17T15:33:15.641Z,16.10
2018-10-17T15:35:44.471Z,16.00
2018-10-17T15:38:13.202Z,16.00
2018-10-17T15:40:41.976Z,15.90
2018-10-17T15:43:10.692Z,15.90
2018-10-17T15:45:39.307Z,15.90
2018-10-17T15:48:08.004Z,15.90
2018-10-17T15:50:36.672Z,15.90
2018-10-17T15:53:05.634Z,15.90
2018-10-17T15:55:34.572Z,15.80
2018-10-17T15:58:03.255Z,15.80
2018-10-17T16:00:31.898Z,15.80
2018-10-17T16:03:00.584Z,15.80
2018-10-17T16:05:30.064Z,15.80
2018-10-17T16:07:59.048Z,15.80
2018-10-17T16:10:27.840Z,15.70
2018-10-17T16:12:56.512Z,15.70
2018-10-17T16:15:25.226Z,15.70
2018-10-17T16:17:54.023Z,15.70
2018-10-17T16:20:22.677Z,15.70
2018-10-17T16:22:51.438Z,15.60
2018-10-17T16:25:20.456Z,15.60
2018-10-17T16:27:49.120Z,15.60
2018-10-17T16:30:17.877Z,15.60
2018-10-17T16:32:46.665Z,15.60
2018-10-17T16:35:15.357Z,15.50
2018-10-17T16:37:44.143Z,15.50
2018-10-17T16:40:12.841Z,15.50
2018-10-17T16:42:41.832Z,15.50
2018-10-17T16:45:11.277Z,15.40
2018-10-17T16:47:40.349Z,15.40
2018-10-17T16:50:09.000Z,15.40
2018-10-17T16:52:37.620Z,15.30
2018-10-17T16:55:07.346Z,15.30
2018-10-17T16:57:36.384Z,15.30
2018-10-17T17:00:06.767Z,15.30
2018-10-17T17:02:35.546Z,15.20
2018-10-17T17:05:04.490Z,15.20
2018-10-17T17:07:33.143Z,15.20
2018-10-17T17:10:01.829Z,15.10
2018-10-17T17:12:30.493Z,15.10
2018-10-17T17:14:59.201Z,15.10
2018-10-17T17:17:27.813Z,15.00
2018-10-17T17:19:56.510Z,15.00
2018-10-17T17:22:25.170Z,14.90
2018-10-17T17:24:53.805Z,14.90
2018-10-17T17:27:22.494Z,14.90
2018-10-17T17:29:51.506Z,14.80
2018-10-17T17:32:20.105Z,14.90
2018-10-17T17:34:49.008Z,14.80
2018-10-17T17:37:17.684Z,14.80
2018-10-17T17:39:46.425Z,14.70
2018-10-17T17:42:15.074Z,14.70
2018-10-17T17:44:43.738Z,14.70
2018-10-17T17:47:12.446Z,14.60
2018-10-17T17:49:41.118Z,14.60
2018-10-17T17:52:09.851Z,14.60
2018-10-17T17:54:38.474Z,14.60
2018-10-17T17:57:07.458Z,14.50
2018-10-17T17:59:36.448Z,14.50
2018-10-17T18:02:05.413Z,14.50
2018-10-17T18:04:34.086Z,14.50
2018-10-17T18:07:03.259Z,14.50
2018-10-17T18:09:32.024Z,14.50
2018-10-17T18:12:00.742Z,14.40
2018-10-17T18:14:29.393Z,14.40
2018-10-17T18:16:58.038Z,14.40
2018-10-17T18:19:26.712Z,14.30
2018-10-17T18:21:55.395Z,14.30
2018-10-17T18:24:24.106Z,14.30
2018-10-17T18:26:52.756Z,14.30
2018-10-17T18:29:21.459Z,14.20
2018-10-17T18:31:50.151Z,14.20
2018-10-17T18:34:18.846Z,14.10
2018-10-17T18:36:48.187Z,14.10
2018-10-17T18:39:17.033Z,14.10
2018-10-17T18:41:45.667Z,14.00
2018-10-17T18:44:14.339Z,14.10
2018-10-17T18:46:42.995Z,14.00
2018-10-17T18:49:11.711Z,14.00
2018-10-17T18:51:40.367Z,14.00
2018-10-17T18:54:09.155Z,13.90
2018-10-17T18:56:37.815Z,14.00
2018-10-17T18:59:06.695Z,14.00
2018-10-17T19:01:35.430Z,13.90
2018-10-17T19:04:03.991Z,13.90
2018-10-17T19:06:32.751Z,13.90
2018-10-17T19:09:01.615Z,13.90
2018-10-17T19:11:30.285Z,13.90
2018-10-17T19:13:58.947Z,13.80
2018-10-17T19:16:27.747Z,13.80
2018-10-17T19:18:56.461Z,13.70
2018-10-17T19:21:25.153Z,13.70
2018-10-17T19:23:53.811Z,13.80
2018-10-17T19:26:22.679Z,13.70
2018-10-17T19:28:51.347Z,13.60
2018-10-17T19:31:20.049Z,13.60
2018-10-17T19:33:48.762Z,13.60
2018-10-17T19:36:17.461Z,13.60
2018-10-17T19:38:46.097Z,13.60
2018-10-17T19:41:14.795Z,13.60
2018-10-17T19:43:43.456Z,13.50
2018-10-17T19:46:12.133Z,13.50
2018-10-17T19:48:41.189Z,13.50
2018-10-17T19:51:09.883Z,13.40
2018-10-17T19:53:38.490Z,13.40
2018-10-17T19:56:07.318Z,13.40
2018-10-17T19:58:35.966Z,13.30
2018-10-17T20:01:04.770Z,13.30
2018-10-17T20:03:33.457Z,13.30
2018-10-17T20:06:02.145Z,13.30
2018-10-17T20:08:30.928Z,13.20
2018-10-17T20:10:59.622Z,13.20
2018-10-17T20:13:28.260Z,13.20
2018-10-17T20:15:56.921Z,13.20
2018-10-17T20:18:25.620Z,13.20
2018-10-17T20:20:54.323Z,13.20
2018-10-17T20:23:22.971Z,13.10
2018-10-17T20:25:51.656Z,13.10
2018-10-17T20:28:20.288Z,13.10
2018-10-17T20:30:49.003Z,13.10
2018-10-17T20:33:17.676Z,13.10
2018-10-17T20:35:46.528Z,13.00
2018-10-17T20:38:15.156Z,13.00
2018-10-17T20:40:43.831Z,13.00
2018-10-17T20:43:12.494Z,13.00
2018-10-17T20:45:41.177Z,13.00
2018-10-17T20:48:09.861Z,13.00
2018-10-17T20:50:38.554Z,12.90
2018-10-17T20:53:07.208Z,12.90
2018-10-17T20:55:35.855Z,12.90
2018-10-17T20:58:04.798Z,12.90
2018-10-17T21:00:33.418Z,12.90
2018-10-17T21:03:02.095Z,12.90
2018-10-17T21:05:30.749Z,12.90
2018-10-17T21:07:59.455Z,12.90
2018-10-17T21:10:28.105Z,12.90
2018-10-17T21:12:56.755Z,12.80
2018-10-17T21:15:25.411Z,12.70
2018-10-17T21:17:54.081Z,12.70
2018-10-17T21:20:22.774Z,12.80
2018-10-17T21:22:51.412Z,12.70
2018-10-17T21:25:20.068Z,12.70
2018-10-17T21:27:48.735Z,12.70
2018-10-17T21:30:17.786Z,12.60
2018-10-17T21:32:46.458Z,12.60
2018-10-17T21:35:15.125Z,12.60
2018-10-17T21:37:43.776Z,12.60
2018-10-17T21:40:13.725Z,12.60
2018-10-17T21:42:42.404Z,12.60
2018-10-17T21:45:11.076Z,12.50
2018-10-17T21:47:39.768Z,12.50
2018-10-17T21:50:09.136Z,12.50
2018-10-17T21:52:37.744Z,12.40
2018-10-17T21:55:06.406Z,12.50
2018-10-17T21:57:35.314Z,12.50
2018-10-17T22:00:04.686Z,12.50
2018-10-17T22:02:33.342Z,12.40
2018-10-17T22:05:02.019Z,12.40
2018-10-17T22:07:30.665Z,12.40
2018-10-17T22:09:59.334Z,12.40
2018-10-17T22:12:28.010Z,12.40
2018-10-17T22:14:56.676Z,12.40
2018-10-17T22:17:28.576Z,12.30
2018-10-17T22:19:57.375Z,12.20
2018-10-17T22:22:26.492Z,12.20
2018-10-17T22:24:55.902Z,12.20
2018-10-17T22:27:24.554Z,12.20
2018-10-17T22:29:53.457Z,12.10
2018-10-17T22:32:22.077Z,12.10
2018-10-17T22:34:50.732Z,12.00
2018-10-17T22:37:19.372Z,12.00
2018-10-17T22:39:48.028Z,12.00
2018-10-17T22:42:16.686Z,12.00
2018-10-17T22:44:45.342Z,12.00
2018-10-17T22:47:13.985Z,12.00
2018-10-17T22:49:42.657Z,12.00
2018-10-17T22:52:11.287Z,12.00
2018-10-17T22:54:39.952Z,11.90
2018-10-17T22:57:08.636Z,11.90
2018-10-17T22:59:37.315Z,11.90
2018-10-17T23:02:06.076Z,11.90
2018-10-17T23:04:34.627Z,11.90
2018-10-17T23:07:03.293Z,11.90
2018-10-17T23:09:31.935Z,11.80
2018-10-17T23:12:00.592Z,11.80
2018-10-17T23:14:29.248Z,11.80
2018-10-17T23:16:57.906Z,11.80
2018-10-17T23:19:26.551Z,11.80
2018-10-17T23:21:55.222Z,11.80
2018-10-17T23:24:23.862Z,11.80
2018-10-17T23:26:52.616Z,11.80
2018-10-17T23:29:21.410Z,11.70
2018-10-17T23:31:50.084Z,11.70
2018-10-17T23:34:18.740Z,11.70
2018-10-17T23:36:47.390Z,11.60
2018-10-17T23:39:16.060Z,11.60
2018-10-17T23:41:44.716Z,11.60
2018-10-17T23:44:13.433Z,11.60
2018-10-17T23:46:42.006Z,11.60
2018-10-17T23:49:10.648Z,11.50
2018-10-17T23:51:39.324Z,11.50
2018-10-17T23:54:08.041Z,11.40
2018-10-17T23:56:36.629Z,11.40
2018-10-17T23:59:05.370Z,11.30
